createdAt,value
2017-01-24T00:00:20.606Z,78.44
2017-01-24T00:00:50.638Z,78.44
2017-01-24T00:01:20.655Z,78.26
2017-01-24T00:01:50.682Z,78.07
2017-01-24T00:02:20.711Z,77.97
2017-01-24T00:02:50.736Z,78.07
2017-01-24T00:03:20.765Z,77.97
2017-01-24T00:03:50.787Z,77.88
2017-01-24T00:04:20.815Z,78.07
2017-01-24T00:04:50.851Z,77.88
2017-01-24T00:05:20.877Z,78.16
2017-01-24T00:05:50.898Z,77.97
2017-01-24T00:06:21.070Z,77.78
2017-01-24T00:06:50.946Z,77.88
2017-01-24T00:07:20.973Z,77.97
2017-01-24T00:07:51.009Z,77.78
2017-01-24T00:08:21.029Z,78.07
2017-01-24T00:08:51.053Z,78.16
2017-01-24T00:09:21.096Z,78.26
2017-01-24T00:09:51.125Z,77.97
2017-01-24T00:10:21.146Z,77.97
2017-01-24T00:10:51.163Z,77.88
2017-01-24T00:11:21.492Z,78.54
2017-01-24T00:11:51.218Z,78.16
2017-01-24T00:12:21.245Z,77.97
2017-01-24T00:12:51.272Z,77.97
2017-01-24T00:13:21.294Z,77.88
2017-01-24T00:13:51.326Z,78.16
2017-01-24T00:14:21.354Z,77.78
2017-01-24T00:14:51.375Z,78.16
2017-01-24T00:15:21.399Z,77.97
2017-01-24T00:15:51.431Z,77.78
2017-01-24T00:16:21.455Z,77.78
2017-01-24T00:16:51.483Z,77.97
2017-01-24T00:17:21.509Z,77.88
2017-01-24T00:17:51.535Z,77.69
2017-01-24T00:18:21.561Z,77.88
2017-01-24T00:18:51.590Z,77.97
2017-01-24T00:19:21.616Z,77.88
2017-01-24T00:19:51.637Z,77.88
2017-01-24T00:20:21.669Z,77.97
2017-01-24T00:20:51.697Z,77.78
2017-01-24T00:21:21.726Z,77.78
2017-01-24T00:21:51.747Z,78.07
2017-01-24T00:22:21.773Z,78.26
2017-01-24T00:22:51.803Z,77.97
2017-01-24T00:23:21.831Z,78.44
2017-01-24T00:23:51.861Z,77.88
2017-01-24T00:24:21.889Z,78.16
2017-01-24T00:24:51.912Z,78.07
2017-01-24T00:25:21.935Z,78.16
2017-01-24T00:25:51.959Z,78.07
2017-01-24T00:26:21.994Z,78.44
2017-01-24T00:26:52.017Z,78.16
2017-01-24T00:27:22.070Z,78.35
2017-01-24T00:27:52.071Z,78.35
2017-01-24T00:28:22.092Z,77.88
2017-01-24T00:28:52.124Z,78.07
2017-01-24T00:29:22.147Z,78.07
2017-01-24T00:29:52.177Z,77.69
2017-01-24T00:30:22.208Z,77.69
2017-01-24T00:30:52.231Z,78.35
2017-01-24T00:31:22.262Z,78.26
2017-01-24T00:31:52.293Z,78.07
2017-01-24T00:32:22.309Z,77.97
2017-01-24T00:32:52.338Z,77.88
2017-01-24T00:33:22.365Z,78.07
2017-01-24T00:33:52.394Z,77.88
2017-01-24T00:34:22.429Z,77.78
2017-01-24T00:34:52.446Z,77.41
2017-01-24T00:35:22.471Z,77.12
2017-01-24T00:35:52.498Z,77.22
2017-01-24T00:36:22.521Z,77.5
2017-01-24T00:36:52.551Z,77.6
2017-01-24T00:37:22.577Z,77.5
2017-01-24T00:37:52.603Z,77.5
2017-01-24T00:38:22.635Z,77.5
2017-01-24T00:38:52.659Z,77.5
2017-01-24T00:39:22.684Z,77.41
2017-01-24T00:39:52.711Z,77.41
2017-01-24T00:40:22.740Z,77.41
2017-01-24T00:40:52.768Z,77.41
2017-01-24T00:41:22.789Z,77.6
2017-01-24T00:41:52.814Z,77.6
2017-01-24T00:42:22.844Z,77.6
2017-01-24T00:42:52.874Z,77.41
2017-01-24T00:43:22.901Z,77.31
2017-01-24T00:43:52.924Z,77.22
2017-01-24T00:44:22.957Z,77.12
2017-01-24T00:44:52.980Z,77.12
2017-01-24T00:45:23.008Z,77.12
2017-01-24T00:45:53.034Z,77.69
2017-01-24T00:46:23.063Z,77.6
2017-01-24T00:46:53.086Z,77.6
2017-01-24T00:47:23.115Z,77.41
2017-01-24T00:47:53.143Z,77.41
2017-01-24T00:48:23.173Z,77.31
2017-01-24T00:48:53.198Z,77.12
2017-01-24T00:49:23.217Z,77.12
2017-01-24T00:49:53.245Z,77.12
2017-01-24T00:50:23.274Z,77.22
2017-01-24T00:50:53.328Z,77.22
2017-01-24T00:51:23.329Z,77.22
2017-01-24T00:51:53.355Z,77.6
2017-01-24T00:52:23.383Z,77.69
2017-01-24T00:52:53.416Z,77.22
2017-01-24T00:53:23.435Z,77.03
2017-01-24T00:53:53.465Z,77.22
2017-01-24T00:54:23.488Z,77.31
2017-01-24T00:54:53.513Z,76.94
2017-01-24T00:55:23.546Z,77.12
2017-01-24T00:55:53.594Z,76.94
2017-01-24T00:56:23.601Z,76.94
2017-01-24T00:56:53.621Z,76.94
2017-01-24T00:57:23.647Z,76.94
2017-01-24T00:57:53.673Z,76.94
2017-01-24T00:58:23.698Z,76.94
2017-01-24T00:58:53.735Z,76.94
2017-01-24T00:59:23.754Z,77.12
2017-01-24T00:59:53.782Z,76.75
2017-01-24T01:00:23.811Z,77.12
2017-01-24T01:00:53.835Z,76.94
2017-01-24T01:01:23.861Z,77.03
2017-01-24T01:01:53.891Z,77.12
2017-01-24T01:02:23.914Z,77.12
2017-01-24T01:02:53.944Z,77.12
2017-01-24T01:03:23.970Z,77.31
2017-01-24T01:03:53.999Z,77.22
2017-01-24T01:04:24.021Z,77.03
2017-01-24T01:04:54.050Z,77.03
2017-01-24T01:05:24.074Z,76.94
2017-01-24T01:05:54.105Z,77.22
2017-01-24T01:06:24.128Z,77.03
2017-01-24T01:06:54.156Z,77.03
2017-01-24T01:07:24.187Z,76.94
2017-01-24T01:07:54.312Z,76.75
2017-01-24T01:08:24.239Z,76.94
2017-01-24T01:08:54.262Z,77.03
2017-01-24T01:09:24.292Z,77.03
2017-01-24T01:09:54.316Z,77.12
2017-01-24T01:10:24.345Z,77.03
2017-01-24T01:10:54.376Z,76.75
2017-01-24T01:11:24.398Z,76.94
2017-01-24T01:11:54.424Z,76.84
2017-01-24T01:12:24.456Z,76.94
2017-01-24T01:12:54.478Z,76.84
2017-01-24T01:13:24.509Z,76.94
2017-01-24T01:13:54.534Z,77.03
2017-01-24T01:14:24.565Z,77.12
2017-01-24T01:14:54.588Z,76.65
2017-01-24T01:15:24.611Z,76.84
2017-01-24T01:15:54.636Z,76.84
2017-01-24T01:16:24.668Z,76.65
2017-01-24T01:16:54.692Z,76.94
2017-01-24T01:17:24.723Z,76.37
2017-01-24T01:17:54.747Z,76.75
2017-01-24T01:18:24.800Z,76.75
2017-01-24T01:18:54.814Z,76.65
2017-01-24T01:19:24.827Z,77.03
2017-01-24T01:19:54.866Z,76.94
2017-01-24T01:20:24.884Z,76.84
2017-01-24T01:20:54.907Z,76.84
2017-01-24T01:21:24.934Z,76.84
2017-01-24T01:21:54.961Z,76.84
2017-01-24T01:22:24.987Z,76.84
2017-01-24T01:22:55.012Z,76.84
2017-01-24T01:23:25.041Z,76.84
2017-01-24T01:23:55.066Z,76.94
2017-01-24T01:24:25.097Z,76.84
2017-01-24T01:24:55.121Z,76.65
2017-01-24T01:25:25.147Z,76.94
2017-01-24T01:25:55.175Z,76.75
2017-01-24T01:26:25.203Z,77.41
2017-01-24T01:26:55.228Z,76.65
2017-01-24T01:27:25.256Z,76.65
2017-01-24T01:27:55.279Z,76.65
2017-01-24T01:28:25.309Z,76.94
2017-01-24T01:28:55.338Z,77.31
2017-01-24T01:29:25.388Z,76.94
2017-01-24T01:29:55.388Z,77.22
2017-01-24T01:30:25.412Z,76.84
2017-01-24T01:30:55.443Z,76.75
2017-01-24T01:31:25.467Z,76.75
2017-01-24T01:31:55.499Z,76.75
2017-01-24T01:32:25.520Z,76.56
2017-01-24T01:32:55.548Z,76.75
2017-01-24T01:33:25.580Z,76.94
2017-01-24T01:33:55.606Z,76.84
2017-01-24T01:34:25.633Z,76.84
2017-01-24T01:34:55.655Z,77.12
2017-01-24T01:35:25.680Z,76.94
2017-01-24T01:35:55.715Z,76.84
2017-01-24T01:36:25.739Z,76.84
2017-01-24T01:36:55.763Z,76.94
2017-01-24T01:37:25.788Z,76.94
2017-01-24T01:37:55.816Z,76.65
2017-01-24T01:38:26.054Z,76.75
2017-01-24T01:38:55.874Z,77.22
2017-01-24T01:39:25.903Z,77.12
2017-01-24T01:39:55.926Z,77.12
2017-01-24T01:40:25.952Z,77.12
2017-01-24T01:40:55.981Z,77.03
2017-01-24T01:41:26.002Z,76.94
2017-01-24T01:41:56.032Z,77.03
2017-01-24T01:42:26.057Z,76.94
2017-01-24T01:42:56.083Z,77.12
2017-01-24T01:43:26.114Z,77.03
2017-01-24T01:43:56.149Z,77.22
2017-01-24T01:44:26.169Z,76.84
2017-01-24T01:44:56.194Z,76.94
2017-01-24T01:45:26.224Z,76.94
2017-01-24T01:45:56.241Z,76.56
2017-01-24T01:46:26.270Z,77.41
2017-01-24T01:46:56.303Z,76.75
2017-01-24T01:47:26.325Z,77.12
2017-01-24T01:47:56.351Z,76.65
2017-01-24T01:48:26.383Z,77.22
2017-01-24T01:48:56.406Z,77.31
2017-01-24T01:49:26.437Z,76.56
2017-01-24T01:49:56.465Z,76.56
2017-01-24T01:50:26.488Z,77.03
2017-01-24T01:50:56.513Z,77.03
2017-01-24T01:51:26.540Z,77.03
2017-01-24T01:51:56.575Z,77.12
2017-01-24T01:52:26.595Z,76.94
2017-01-24T01:52:56.616Z,76.94
2017-01-24T01:53:26.649Z,76.84
2017-01-24T01:53:56.672Z,76.84
2017-01-24T01:54:26.702Z,77.03
2017-01-24T01:54:56.725Z,77.03
2017-01-24T01:55:26.757Z,77.22
2017-01-24T01:55:56.782Z,77.12
2017-01-24T01:56:26.804Z,77.03
2017-01-24T01:56:56.832Z,76.94
2017-01-24T01:57:26.859Z,76.65
2017-01-24T01:57:56.893Z,76.94
2017-01-24T01:58:26.913Z,76.94
2017-01-24T01:58:56.942Z,76.94
2017-01-24T01:59:26.971Z,76.65
2017-01-24T01:59:56.991Z,76.65
2017-01-24T02:00:27.022Z,76.75
2017-01-24T02:00:57.052Z,76.75
2017-01-24T02:01:27.089Z,77.22
2017-01-24T02:01:57.102Z,77.22
2017-01-24T02:02:27.125Z,77.22
2017-01-24T02:02:57.162Z,77.03
2017-01-24T02:03:27.191Z,76.75
2017-01-24T02:03:57.207Z,76.94
2017-01-24T02:04:27.264Z,77.03
2017-01-24T02:04:57.276Z,76.94
2017-01-24T02:05:27.288Z,76.94
2017-01-24T02:05:57.318Z,76.56
2017-01-24T02:06:27.347Z,76.84
2017-01-24T02:06:57.370Z,77.31
2017-01-24T02:07:27.396Z,76.65
2017-01-24T02:07:57.420Z,76.94
2017-01-24T02:08:27.447Z,77.41
2017-01-24T02:08:57.483Z,76.56
2017-01-24T02:09:27.506Z,76.46
2017-01-24T02:09:57.533Z,76.84
2017-01-24T02:10:27.555Z,77.03
2017-01-24T02:10:57.591Z,76.56
2017-01-24T02:11:27.608Z,76.65
2017-01-24T02:11:57.641Z,76.56
2017-01-24T02:12:27.662Z,76.56
2017-01-24T02:12:57.688Z,77.41
2017-01-24T02:13:27.724Z,76.94
2017-01-24T02:13:57.745Z,76.84
2017-01-24T02:14:27.776Z,76.84
2017-01-24T02:14:57.798Z,76.94
2017-01-24T02:15:27.823Z,76.84
2017-01-24T02:15:57.851Z,77.03
2017-01-24T02:16:27.883Z,77.22
2017-01-24T02:16:57.906Z,76.56
2017-01-24T02:17:27.932Z,76.94
2017-01-24T02:17:57.966Z,76.94
2017-01-24T02:18:27.988Z,76.94
2017-01-24T02:18:58.013Z,76.75
2017-01-24T02:19:28.042Z,76.94
2017-01-24T02:19:58.066Z,76.84
2017-01-24T02:20:28.096Z,76.94
2017-01-24T02:20:58.121Z,77.03
2017-01-24T02:21:28.155Z,76.75
2017-01-24T02:21:58.176Z,77.22
2017-01-24T02:22:28.201Z,76.75
2017-01-24T02:22:58.237Z,77.12
2017-01-24T02:23:28.259Z,76.75
2017-01-24T02:23:58.284Z,76.75
2017-01-24T02:24:28.361Z,76.84
2017-01-24T02:24:58.338Z,76.65
2017-01-24T02:25:28.365Z,76.75
2017-01-24T02:25:58.394Z,77.03
2017-01-24T02:26:28.423Z,76.84
2017-01-24T02:26:58.447Z,76.75
2017-01-24T02:27:28.470Z,76.94
2017-01-24T02:27:58.501Z,77.03
2017-01-24T02:28:28.525Z,76.84
2017-01-24T02:28:58.556Z,77.07
2017-01-24T02:29:28.580Z,76.84
2017-01-24T02:29:58.604Z,76.84
2017-01-24T02:30:28.635Z,76.84
2017-01-24T02:30:58.659Z,76.46
2017-01-24T02:31:28.687Z,76.46
2017-01-24T02:31:58.710Z,76.46
2017-01-24T02:32:28.742Z,77.03
2017-01-24T02:32:58.766Z,76.84
2017-01-24T02:33:28.797Z,76.89
2017-01-24T02:33:58.971Z,77.17
2017-01-24T02:34:28.845Z,77.03
2017-01-24T02:34:58.871Z,76.89
2017-01-24T02:35:28.902Z,76.65
2017-01-24T02:35:58.927Z,77.17
2017-01-24T02:36:28.954Z,76.79
2017-01-24T02:36:58.982Z,76.79
2017-01-24T02:37:29.009Z,76.98
2017-01-24T02:37:59.036Z,76.89
2017-01-24T02:38:29.062Z,76.89
2017-01-24T02:38:59.091Z,76.46
2017-01-24T02:39:29.114Z,76.65
2017-01-24T02:39:59.149Z,76.79
2017-01-24T02:40:29.169Z,77.07
2017-01-24T02:40:59.229Z,76.18
2017-01-24T02:41:29.222Z,76.75
2017-01-24T02:41:59.251Z,76.75
2017-01-24T02:42:29.282Z,76.84
2017-01-24T02:42:59.307Z,76.75
2017-01-24T02:43:29.333Z,76.84
2017-01-24T02:43:59.358Z,76.37
2017-01-24T02:44:29.542Z,76.89
2017-01-24T02:44:59.413Z,76.84
2017-01-24T02:45:29.442Z,77.03
2017-01-24T02:45:59.471Z,76.75
2017-01-24T02:46:29.506Z,76.84
2017-01-24T02:46:59.521Z,76.75
2017-01-24T02:47:29.550Z,76.84
2017-01-24T02:47:59.576Z,77.03
2017-01-24T02:48:29.604Z,76.75
2017-01-24T02:48:59.631Z,76.18
2017-01-24T02:49:29.656Z,76.56
2017-01-24T02:49:59.680Z,76.65
2017-01-24T02:50:29.709Z,77.22
2017-01-24T02:50:59.737Z,76.75
2017-01-24T02:51:29.762Z,76.75
2017-01-24T02:51:59.794Z,76.84
2017-01-24T02:52:29.817Z,76.89
2017-01-24T02:52:59.850Z,76.75
2017-01-24T02:53:29.871Z,76.75
2017-01-24T02:53:59.900Z,77.07
2017-01-24T02:54:29.928Z,76.75
2017-01-24T02:54:59.955Z,76.98
2017-01-24T02:55:29.983Z,76.7
2017-01-24T02:56:00.011Z,76.7
2017-01-24T02:56:30.045Z,76.75
2017-01-24T02:57:00.062Z,76.75
2017-01-24T02:57:30.085Z,76.89
2017-01-24T02:58:00.115Z,76.79
2017-01-24T02:58:30.138Z,76.89
2017-01-24T02:59:00.171Z,76.6
2017-01-24T02:59:30.195Z,76.75
2017-01-24T03:00:00.225Z,77.26
2017-01-24T03:00:30.248Z,76.79
2017-01-24T03:01:00.281Z,76.79
2017-01-24T03:01:30.299Z,76.32
2017-01-24T03:02:00.327Z,76.22
2017-01-24T03:02:30.355Z,76.46
2017-01-24T03:03:00.395Z,76.51
2017-01-24T03:03:30.406Z,76.6
2017-01-24T03:04:00.441Z,76.09
2017-01-24T03:04:30.461Z,76.7
2017-01-24T03:05:00.488Z,76.79
2017-01-24T03:05:30.514Z,76.22
2017-01-24T03:06:00.544Z,76.79
2017-01-24T03:06:30.571Z,76.79
2017-01-24T03:07:00.598Z,76.32
2017-01-24T03:07:30.624Z,77.07
2017-01-24T03:08:00.654Z,76.89
2017-01-24T03:08:30.679Z,76.94
2017-01-24T03:09:00.704Z,76.79
2017-01-24T03:09:30.731Z,76.18
2017-01-24T03:10:00.757Z,76.79
2017-01-24T03:10:30.794Z,76.79
2017-01-24T03:11:00.810Z,76.51
2017-01-24T03:11:30.835Z,76.79
2017-01-24T03:12:00.870Z,76.98
2017-01-24T03:12:30.891Z,76.79
2017-01-24T03:13:00.919Z,76.13
2017-01-24T03:13:30.944Z,76.6
2017-01-24T03:14:00.976Z,76.79
2017-01-24T03:14:31.020Z,76.7
2017-01-24T03:15:01.029Z,76.79
2017-01-24T03:15:31.050Z,76.65
2017-01-24T03:16:01.082Z,76.41
2017-01-24T03:16:31.105Z,76.28
2017-01-24T03:17:01.131Z,76.7
2017-01-24T03:17:31.154Z,76.41
2017-01-24T03:18:01.183Z,77.17
2017-01-24T03:18:31.217Z,77.07
2017-01-24T03:19:01.247Z,76.89
2017-01-24T03:19:31.266Z,77.12
2017-01-24T03:20:01.296Z,76.98
2017-01-24T03:20:31.318Z,77.22
2017-01-24T03:21:01.347Z,76.6
2017-01-24T03:21:31.375Z,76.7
2017-01-24T03:22:01.404Z,76.89
2017-01-24T03:22:31.422Z,76.98
2017-01-24T03:23:01.754Z,77.07
2017-01-24T03:23:31.480Z,76.7
2017-01-24T03:24:01.531Z,76.79
2017-01-24T03:24:31.534Z,76.89
2017-01-24T03:25:01.572Z,76.89
2017-01-24T03:25:31.582Z,76.7
2017-01-24T03:26:01.761Z,76.79
2017-01-24T03:26:31.640Z,76.89
2017-01-24T03:27:01.671Z,76.79
2017-01-24T03:27:31.695Z,77.36
2017-01-24T03:28:01.722Z,77.17
2017-01-24T03:28:31.746Z,76.98
2017-01-24T03:29:01.776Z,76.89
2017-01-24T03:29:31.804Z,76.98
2017-01-24T03:30:02.177Z,76.98
2017-01-24T03:30:31.851Z,76.98
2017-01-24T03:31:01.883Z,77.17
2017-01-24T03:31:31.911Z,77.17
2017-01-24T03:32:01.982Z,77.07
2017-01-24T03:32:31.966Z,76.89
2017-01-24T03:33:01.984Z,76.89
2017-01-24T03:33:32.023Z,76.98
2017-01-24T03:34:02.192Z,76.89
2017-01-24T03:34:32.070Z,76.89
2017-01-24T03:35:02.124Z,76.89
2017-01-24T03:35:32.127Z,76.89
2017-01-24T03:36:02.247Z,76.98
2017-01-24T03:36:32.175Z,76.89
2017-01-24T03:37:02.202Z,77.07
2017-01-24T03:37:32.233Z,76.98
2017-01-24T03:38:02.260Z,77.07
2017-01-24T03:38:32.281Z,76.98
2017-01-24T03:39:02.311Z,76.98
2017-01-24T03:39:32.339Z,77.07
2017-01-24T03:40:02.363Z,77.07
2017-01-24T03:40:32.388Z,77.26
2017-01-24T03:41:02.420Z,76.98
2017-01-24T03:41:32.465Z,76.98
2017-01-24T03:42:02.474Z,77.07
2017-01-24T03:42:32.498Z,77.17
2017-01-24T03:43:02.574Z,77.26
2017-01-24T03:43:32.554Z,77.26
2017-01-24T03:44:02.584Z,77.07
2017-01-24T03:44:32.611Z,76.98
2017-01-24T03:45:02.643Z,77.07
2017-01-24T03:45:32.659Z,77.07
2017-01-24T03:46:02.788Z,76.98
2017-01-24T03:46:32.712Z,76.79
2017-01-24T03:47:02.843Z,77.26
2017-01-24T03:47:32.764Z,76.89
2017-01-24T03:48:02.796Z,76.89
2017-01-24T03:48:32.819Z,76.89
2017-01-24T03:49:02.846Z,77.26
2017-01-24T03:49:32.876Z,77.36
2017-01-24T03:50:03.256Z,77.36
2017-01-24T03:50:32.932Z,77.36
2017-01-24T03:51:02.960Z,77.64
2017-01-24T03:51:32.988Z,77.17
2017-01-24T03:52:03.111Z,77.17
2017-01-24T03:52:33.037Z,77.17
2017-01-24T03:53:03.066Z,77.26
2017-01-24T03:53:33.087Z,77.55
2017-01-24T03:54:03.119Z,77.73
2017-01-24T03:54:33.152Z,77.64
2017-01-24T03:55:03.173Z,77.36
2017-01-24T03:55:33.226Z,77.36
2017-01-24T03:56:03.228Z,77.55
2017-01-24T03:56:33.254Z,77.26
2017-01-24T03:57:03.286Z,77.36
2017-01-24T03:57:33.308Z,77.26
2017-01-24T03:58:03.336Z,77.36
2017-01-24T03:58:33.363Z,77.26
2017-01-24T03:59:03.389Z,77.83
2017-01-24T03:59:33.414Z,77.45
2017-01-24T04:00:03.448Z,77.92
2017-01-24T04:00:33.474Z,77.55
2017-01-24T04:01:03.500Z,77.45
2017-01-24T04:01:33.526Z,77.45
2017-01-24T04:02:03.554Z,77.92
2017-01-24T04:02:33.585Z,77.92
2017-01-24T04:03:03.612Z,77.83
2017-01-24T04:03:33.635Z,77.45
2017-01-24T04:04:03.663Z,77.45
2017-01-24T04:04:33.700Z,77.26
2017-01-24T04:05:03.715Z,77.45
2017-01-24T04:05:33.749Z,77.36
2017-01-24T04:06:03.770Z,77.26
2017-01-24T04:06:33.953Z,77.55
2017-01-24T04:07:03.831Z,77.45
2017-01-24T04:07:33.854Z,77.45
2017-01-24T04:08:03.884Z,77.55
2017-01-24T04:08:33.909Z,77.26
2017-01-24T04:09:03.935Z,77.26
2017-01-24T04:09:33.959Z,77.26
2017-01-24T04:10:03.992Z,77.17
2017-01-24T04:10:34.015Z,77.26
2017-01-24T04:11:04.046Z,77.55
2017-01-24T04:11:34.069Z,77.55
2017-01-24T04:12:04.098Z,77.55
2017-01-24T04:12:34.126Z,77.73
2017-01-24T04:13:04.158Z,77.36
2017-01-24T04:13:34.184Z,77.17
2017-01-24T04:14:04.206Z,77.36
2017-01-24T04:14:34.265Z,77.26
2017-01-24T04:15:04.257Z,77.36
2017-01-24T04:15:34.292Z,77.45
2017-01-24T04:16:04.312Z,77.64
2017-01-24T04:16:34.348Z,77.45
2017-01-24T04:17:04.379Z,77.17
2017-01-24T04:17:34.404Z,77.36
2017-01-24T04:18:04.428Z,76.89
2017-01-24T04:18:34.452Z,76.89
2017-01-24T04:19:04.513Z,77.17
2017-01-24T04:19:34.525Z,77.07
2017-01-24T04:20:04.536Z,77.07
2017-01-24T04:20:34.563Z,77.07
2017-01-24T04:21:04.593Z,77.26
2017-01-24T04:21:34.644Z,76.79
2017-01-24T04:22:04.644Z,76.79
2017-01-24T04:22:34.686Z,77.26
2017-01-24T04:23:04.704Z,76.89
2017-01-24T04:23:34.732Z,76.7
2017-01-24T04:24:04.760Z,76.7
2017-01-24T04:24:34.786Z,76.79
2017-01-24T04:25:04.813Z,76.79
2017-01-24T04:25:34.837Z,76.79
2017-01-24T04:26:04.865Z,76.7
2017-01-24T04:26:34.897Z,76.79
2017-01-24T04:27:04.926Z,76.89
2017-01-24T04:27:34.946Z,76.51
2017-01-24T04:28:04.977Z,76.51
2017-01-24T04:28:35.007Z,76.6
2017-01-24T04:29:05.036Z,76.6
2017-01-24T04:29:35.064Z,77.45
2017-01-24T04:30:05.087Z,76.6
2017-01-24T04:30:35.114Z,76.98
2017-01-24T04:31:05.142Z,76.89
2017-01-24T04:31:35.168Z,76.98
2017-01-24T04:32:05.199Z,76.79
2017-01-24T04:32:35.224Z,76.89
2017-01-24T04:33:05.250Z,77.26
2017-01-24T04:33:35.283Z,76.98
2017-01-24T04:34:05.312Z,76.7
2017-01-24T04:34:35.333Z,77.45
2017-01-24T04:35:05.363Z,76.89
2017-01-24T04:35:35.387Z,76.51
2017-01-24T04:36:05.412Z,76.6
2017-01-24T04:36:35.465Z,77.26
2017-01-24T04:37:05.470Z,76.79
2017-01-24T04:37:35.501Z,76.98
2017-01-24T04:38:05.527Z,76.79
2017-01-24T04:38:35.549Z,76.6
2017-01-24T04:39:05.580Z,76.89
2017-01-24T04:39:35.607Z,76.98
2017-01-24T04:40:05.632Z,76.6
2017-01-24T04:40:35.658Z,76.89
2017-01-24T04:41:05.688Z,77.17
2017-01-24T04:41:35.712Z,76.98
2017-01-24T04:42:05.746Z,76.79
2017-01-24T04:42:35.773Z,76.89
2017-01-24T04:43:05.797Z,76.89
2017-01-24T04:43:35.830Z,76.79
2017-01-24T04:44:05.855Z,76.89
2017-01-24T04:44:35.880Z,76.89
2017-01-24T04:45:05.910Z,76.7
2017-01-24T04:45:35.936Z,76.79
2017-01-24T04:46:05.965Z,76.89
2017-01-24T04:46:35.990Z,77.07
2017-01-24T04:47:06.018Z,76.7
2017-01-24T04:47:36.043Z,76.79
2017-01-24T04:48:06.073Z,76.79
2017-01-24T04:48:36.104Z,76.79
2017-01-24T04:49:06.128Z,77.26
2017-01-24T04:49:36.153Z,77.17
2017-01-24T04:50:06.180Z,77.07
2017-01-24T04:50:36.209Z,76.98
2017-01-24T04:51:06.234Z,77.07
2017-01-24T04:51:36.263Z,77.17
2017-01-24T04:52:06.288Z,77.36
2017-01-24T04:52:36.314Z,77.17
2017-01-24T04:53:06.347Z,77.26
2017-01-24T04:53:36.374Z,77.26
2017-01-24T04:54:06.398Z,77.73
2017-01-24T04:54:36.428Z,77.77
2017-01-24T04:55:06.451Z,77.77
2017-01-24T04:55:36.481Z,77.77
2017-01-24T04:56:06.515Z,77.73
2017-01-24T04:56:36.537Z,77.3
2017-01-24T04:57:06.565Z,77.26
2017-01-24T04:57:36.592Z,77.17
2017-01-24T04:58:06.621Z,77.39
2017-01-24T04:58:36.647Z,77.26
2017-01-24T04:59:06.672Z,77.11
2017-01-24T04:59:36.699Z,76.92
2017-01-24T05:00:06.736Z,77.3
2017-01-24T05:00:36.761Z,77.49
2017-01-24T05:01:06.789Z,77.2
2017-01-24T05:01:36.811Z,77.2
2017-01-24T05:02:06.841Z,77.2
2017-01-24T05:02:36.866Z,77.26
2017-01-24T05:03:06.895Z,77.77
2017-01-24T05:03:36.923Z,77.58
2017-01-24T05:04:06.950Z,77.49
2017-01-24T05:04:36.970Z,77.58
2017-01-24T05:05:07.003Z,77.67
2017-01-24T05:05:37.032Z,77.49
2017-01-24T05:06:07.059Z,77.3
2017-01-24T05:06:37.085Z,77.2
2017-01-24T05:07:07.117Z,77.49
2017-01-24T05:07:37.167Z,77.39
2017-01-24T05:08:07.162Z,77.49
2017-01-24T05:08:37.195Z,77.77
2017-01-24T05:09:07.218Z,77.77
2017-01-24T05:09:37.251Z,78.24
2017-01-24T05:10:07.283Z,78.15
2017-01-24T05:10:37.314Z,77.86
2017-01-24T05:11:07.332Z,77.77
2017-01-24T05:11:37.359Z,77.77
2017-01-24T05:12:07.398Z,78.15
2017-01-24T05:12:37.418Z,78.24
2017-01-24T05:13:07.469Z,78.52
2017-01-24T05:13:37.469Z,78.05
2017-01-24T05:14:07.496Z,78.81
2017-01-24T05:14:37.524Z,78.62
2017-01-24T05:15:07.554Z,78.43
2017-01-24T05:15:37.579Z,78.71
2017-01-24T05:16:07.611Z,79
2017-01-24T05:16:37.636Z,79
2017-01-24T05:17:07.655Z,78.9
2017-01-24T05:17:37.686Z,79.09
2017-01-24T05:18:07.716Z,79.37
2017-01-24T05:18:37.754Z,78.81
2017-01-24T05:19:07.771Z,78.81
2017-01-24T05:19:37.801Z,79.09
2017-01-24T05:20:07.822Z,79.47
2017-01-24T05:20:37.849Z,79.47
2017-01-24T05:21:07.879Z,79.19
2017-01-24T05:21:37.908Z,79.19
2017-01-24T05:22:07.935Z,79.56
2017-01-24T05:22:37.962Z,79.47
2017-01-24T05:23:07.994Z,79.56
2017-01-24T05:23:38.024Z,79.56
2017-01-24T05:24:08.048Z,79.56
2017-01-24T05:24:38.069Z,79.56
2017-01-24T05:25:08.101Z,79.47
2017-01-24T05:25:38.126Z,79.56
2017-01-24T05:26:08.156Z,79.28
2017-01-24T05:26:38.186Z,79.19
2017-01-24T05:27:08.208Z,79.28
2017-01-24T05:27:38.239Z,79.28
2017-01-24T05:28:08.266Z,79.37
2017-01-24T05:28:38.390Z,79.56
2017-01-24T05:29:08.323Z,79.09
2017-01-24T05:29:38.353Z,79.28
2017-01-24T05:30:08.377Z,79.56
2017-01-24T05:30:38.398Z,79.47
2017-01-24T05:31:08.429Z,79.37
2017-01-24T05:31:38.454Z,79.28
2017-01-24T05:32:08.488Z,79.56
2017-01-24T05:32:38.512Z,79.28
2017-01-24T05:33:08.537Z,79.56
2017-01-24T05:33:38.564Z,79.66
2017-01-24T05:34:08.602Z,79.66
2017-01-24T05:34:38.627Z,79.47
2017-01-24T05:35:08.648Z,79.56
2017-01-24T05:35:38.673Z,80.13
2017-01-24T05:36:08.701Z,79.94
2017-01-24T05:36:38.734Z,79.94
2017-01-24T05:37:08.759Z,79.94
2017-01-24T05:37:38.784Z,79.75
2017-01-24T05:38:08.809Z,79.85
2017-01-24T05:38:38.839Z,79.85
2017-01-24T05:39:08.867Z,79.75
2017-01-24T05:39:38.903Z,80.04
2017-01-24T05:40:08.924Z,79.85
2017-01-24T05:40:38.951Z,80.04
2017-01-24T05:41:08.979Z,79.75
2017-01-24T05:41:39.015Z,79.85
2017-01-24T05:42:09.035Z,79.37
2017-01-24T05:42:39.057Z,79.85
2017-01-24T05:43:09.085Z,79.66
2017-01-24T05:43:39.113Z,80.51
2017-01-24T05:44:09.144Z,79.85
2017-01-24T05:44:39.170Z,80.22
2017-01-24T05:45:09.202Z,80.04
2017-01-24T05:45:39.222Z,80.41
2017-01-24T05:46:09.253Z,79.85
2017-01-24T05:46:39.282Z,80.32
2017-01-24T05:47:09.311Z,80.32
2017-01-24T05:47:39.335Z,80.22
2017-01-24T05:48:09.363Z,79.75
2017-01-24T05:48:39.391Z,79.75
2017-01-24T05:49:09.417Z,79.85
2017-01-24T05:49:39.443Z,79.75
2017-01-24T05:50:09.470Z,80.32
2017-01-24T05:50:39.498Z,80.13
2017-01-24T05:51:09.526Z,80.32
2017-01-24T05:51:39.548Z,80.32
2017-01-24T05:52:09.580Z,80.22
2017-01-24T05:52:39.609Z,80.22
2017-01-24T05:53:09.637Z,80.22
2017-01-24T05:53:39.663Z,80.32
2017-01-24T05:54:09.692Z,79.75
2017-01-24T05:54:39.720Z,80.04
2017-01-24T05:55:09.748Z,80.04
2017-01-24T05:55:39.771Z,80.32
2017-01-24T05:56:09.804Z,80.22
2017-01-24T05:56:39.831Z,80.32
2017-01-24T05:57:09.875Z,80.13
2017-01-24T05:57:39.884Z,80.13
2017-01-24T05:58:09.910Z,80.13
2017-01-24T05:58:39.944Z,80.6
2017-01-24T05:59:09.967Z,80.69
2017-01-24T05:59:39.997Z,80.41
2017-01-24T06:00:10.024Z,80.32
2017-01-24T06:00:40.055Z,80.32
2017-01-24T06:01:10.076Z,80.41
2017-01-24T06:01:40.102Z,80.51
2017-01-24T06:02:10.131Z,80.41
2017-01-24T06:02:40.159Z,80.32
2017-01-24T06:03:10.184Z,80.51
2017-01-24T06:03:40.213Z,80.32
2017-01-24T06:04:10.250Z,80.04
2017-01-24T06:04:40.267Z,80.22
2017-01-24T06:05:10.297Z,80.32
2017-01-24T06:05:40.324Z,80.32
2017-01-24T06:06:10.351Z,80.13
2017-01-24T06:06:40.375Z,80.13
2017-01-24T06:07:10.409Z,80.22
2017-01-24T06:07:40.430Z,80.22
2017-01-24T06:08:10.463Z,79.85
2017-01-24T06:08:40.488Z,79.85
2017-01-24T06:09:10.515Z,80.13
2017-01-24T06:09:40.547Z,80.32
2017-01-24T06:10:10.573Z,80.32
2017-01-24T06:10:40.597Z,80.22
2017-01-24T06:11:10.627Z,80.41
2017-01-24T06:11:40.655Z,80.22
2017-01-24T06:12:10.682Z,80.13
2017-01-24T06:12:40.708Z,80.22
2017-01-24T06:13:10.735Z,80.32
2017-01-24T06:13:40.763Z,80.22
2017-01-24T06:14:10.793Z,80.32
2017-01-24T06:14:40.824Z,79.75
2017-01-24T06:15:10.844Z,80.22
2017-01-24T06:15:40.878Z,80.13
2017-01-24T06:16:10.900Z,80.04
2017-01-24T06:16:40.928Z,79.85
2017-01-24T06:17:10.959Z,79.75
2017-01-24T06:17:40.987Z,79.94
2017-01-24T06:18:11.016Z,79.75
2017-01-24T06:18:41.042Z,79.85
2017-01-24T06:19:11.069Z,80.13
2017-01-24T06:19:41.094Z,79.85
2017-01-24T06:20:11.122Z,79.85
2017-01-24T06:20:41.152Z,79.94
2017-01-24T06:21:11.185Z,79.85
2017-01-24T06:21:41.213Z,80.04
2017-01-24T06:22:11.235Z,79.94
2017-01-24T06:22:41.261Z,79.85
2017-01-24T06:23:11.288Z,79.56
2017-01-24T06:23:41.326Z,79.56
2017-01-24T06:24:11.344Z,79.66
2017-01-24T06:24:41.371Z,79.28
2017-01-24T06:25:11.399Z,79.37
2017-01-24T06:25:41.425Z,79.37
2017-01-24T06:26:11.480Z,79.56
2017-01-24T06:26:41.489Z,79.37
2017-01-24T06:27:11.514Z,79.28
2017-01-24T06:27:41.534Z,79.28